sensor_id;sensor_type;location;lat;lon;timestamp;P1;durP1;ratioP1;P2;durP2;ratioP2
52718;SDS011;38616;42.140;24.760;2022-10-16T00:01:16;6.82;;;3.75;;
52718;SDS011;38616;42.140;24.760;2022-10-16T00:03:43;7.20;;;4.05;;
52718;SDS011;38616;42.140;24.760;2022-10-16T00:06:10;7.13;;;3.67;;
52718;SDS011;38616;42.140;24.760;2022-10-16T00:08:36;7.00;;;4.25;;
52718;SDS011;38616;42.140;24.760;2022-10-16T00:11:03;7.88;;;4.60;;
52718;SDS011;38616;42.140;24.760;2022-10-16T00:13:32;8.10;;;3.92;;
52718;SDS011;38616;42.140;24.760;2022-10-16T00:15:59;13.00;;;6.03;;
52718;SDS011;38616;42.140;24.760;2022-10-16T00:18:26;9.20;;;3.92;;
52718;SDS011;38616;42.140;24.760;2022-10-16T00:20:52;8.10;;;3.22;;
52718;SDS011;38616;42.140;24.760;2022-10-16T00:23:19;9.45;;;4.22;;
52718;SDS011;38616;42.140;24.760;2022-10-16T00:25:44;10.35;;;4.03;;
52718;SDS011;38616;42.140;24.760;2022-10-16T00:28:10;8.27;;;3.80;;
52718;SDS011;38616;42.140;24.760;2022-10-16T00:30:39;12.30;;;5.20;;
52718;SDS011;38616;42.140;24.760;2022-10-16T00:33:05;11.85;;;4.85;;
52718;SDS011;38616;42.140;24.760;2022-10-16T00:35:30;9.98;;;4.40;;
52718;SDS011;38616;42.140;24.760;2022-10-16T00:37:56;7.35;;;3.70;;
52718;SDS011;38616;42.140;24.760;2022-10-16T00:40:21;8.45;;;4.82;;
52718;SDS011;38616;42.140;24.760;2022-10-16T00:42:47;7.88;;;4.20;;
52718;SDS011;38616;42.140;24.760;2022-10-16T00:45:12;8.38;;;3.80;;
52718;SDS011;38616;42.140;24.760;2022-10-16T00:47:42;14.50;;;4.60;;
52718;SDS011;38616;42.140;24.760;2022-10-16T00:52:59;13.50;;;4.22;;
52718;SDS011;38616;42.140;24.760;2022-10-16T00:55:26;17.77;;;5.53;;
52718;SDS011;38616;42.140;24.760;2022-10-16T00:57:55;13.70;;;6.07;;
52718;SDS011;38616;42.140;24.760;2022-10-16T01:00:24;12.43;;;7.13;;
52718;SDS011;38616;42.140;24.760;2022-10-16T01:02:55;16.52;;;6.82;;
52718;SDS011;38616;42.140;24.760;2022-10-16T01:05:23;11.55;;;6.45;;
52718;SDS011;38616;42.140;24.760;2022-10-16T01:08:12;19.17;;;7.70;;
52718;SDS011;38616;42.140;24.760;2022-10-16T01:13:49;15.00;;;8.32;;
52718;SDS011;38616;42.140;24.760;2022-10-16T01:16:33;13.55;;;6.35;;
52718;SDS011;38616;42.140;24.760;2022-10-16T01:19:08;13.00;;;6.18;;
52718;SDS011;38616;42.140;24.760;2022-10-16T01:21:40;12.80;;;5.53;;
52718;SDS011;38616;42.140;24.760;2022-10-16T01:24:17;14.23;;;5.50;;
52718;SDS011;38616;42.140;24.760;2022-10-16T01:40:19;12.70;;;5.32;;
52718;SDS011;38616;42.140;24.760;2022-10-16T01:42:48;9.55;;;5.63;;
52718;SDS011;38616;42.140;24.760;2022-10-16T01:45:20;12.85;;;5.80;;
52718;SDS011;38616;42.140;24.760;2022-10-16T01:47:46;10.50;;;5.93;;
52718;SDS011;38616;42.140;24.760;2022-10-16T01:52:42;12.57;;;6.03;;
52718;SDS011;38616;42.140;24.760;2022-10-16T01:55:12;16.73;;;6.10;;
52718;SDS011;38616;42.140;24.760;2022-10-16T01:57:41;12.88;;;5.70;;
52718;SDS011;38616;42.140;24.760;2022-10-16T02:00:11;14.05;;;5.65;;
52718;SDS011;38616;42.140;24.760;2022-10-16T02:02:39;13.55;;;6.25;;
52718;SDS011;38616;42.140;24.760;2022-10-16T02:05:10;10.85;;;6.28;;
52718;SDS011;38616;42.140;24.760;2022-10-16T02:07:47;12.77;;;6.43;;
52718;SDS011;38616;42.140;24.760;2022-10-16T02:10:13;9.88;;;5.53;;
52718;SDS011;38616;42.140;24.760;2022-10-16T02:12:40;13.70;;;6.80;;
52718;SDS011;38616;42.140;24.760;2022-10-16T02:15:10;9.50;;;5.82;;
52718;SDS011;38616;42.140;24.760;2022-10-16T02:17:36;12.43;;;6.13;;
52718;SDS011;38616;42.140;24.760;2022-10-16T02:20:01;10.82;;;6.05;;
52718;SDS011;38616;42.140;24.760;2022-10-16T02:22:30;10.82;;;6.40;;
52718;SDS011;38616;42.140;24.760;2022-10-16T02:25:01;15.77;;;6.03;;
52718;SDS011;38616;42.140;24.760;2022-10-16T02:27:35;14.98;;;5.57;;
52718;SDS011;38616;42.140;24.760;2022-10-16T02:33:16;19.70;;;6.15;;
52718;SDS011;38616;42.140;24.760;2022-10-16T02:35:44;13.35;;;5.70;;
52718;SDS011;38616;42.140;24.760;2022-10-16T02:38:11;10.73;;;5.68;;
52718;SDS011;38616;42.140;24.760;2022-10-16T02:40:39;16.75;;;6.43;;
52718;SDS011;38616;42.140;24.760;2022-10-16T02:43:05;14.82;;;5.82;;
52718;SDS011;38616;42.140;24.760;2022-10-16T02:45:30;15.27;;;6.55;;
52718;SDS011;38616;42.140;24.760;2022-10-16T02:47:56;14.20;;;6.00;;
52718;SDS011;38616;42.140;24.760;2022-10-16T02:50:21;13.45;;;5.82;;
52718;SDS011;38616;42.140;24.760;2022-10-16T02:52:47;17.00;;;5.80;;
52718;SDS011;38616;42.140;24.760;2022-10-16T02:55:13;13.18;;;5.28;;
52718;SDS011;38616;42.140;24.760;2022-10-16T02:57:39;13.52;;;5.78;;
52718;SDS011;38616;42.140;24.760;2022-10-16T03:00:05;9.30;;;5.68;;
52718;SDS011;38616;42.140;24.760;2022-10-16T03:02:33;11.60;;;5.95;;
52718;SDS011;38616;42.140;24.760;2022-10-16T03:04:58;10.75;;;5.93;;
52718;SDS011;38616;42.140;24.760;2022-10-16T03:07:24;13.30;;;6.50;;
52718;SDS011;38616;42.140;24.760;2022-10-16T03:09:49;12.55;;;5.60;;
52718;SDS011;38616;42.140;24.760;2022-10-16T03:12:15;11.40;;;5.40;;
52718;SDS011;38616;42.140;24.760;2022-10-16T03:14:40;16.48;;;5.50;;
52718;SDS011;38616;42.140;24.760;2022-10-16T03:17:06;13.48;;;5.95;;
52718;SDS011;38616;42.140;24.760;2022-10-16T03:19:31;12.10;;;4.82;;
52718;SDS011;38616;42.140;24.760;2022-10-16T03:21:56;12.68;;;5.82;;
52718;SDS011;38616;42.140;24.760;2022-10-16T03:24:22;13.20;;;5.75;;
52718;SDS011;38616;42.140;24.760;2022-10-16T03:26:47;14.23;;;5.30;;
52718;SDS011;38616;42.140;24.760;2022-10-16T03:29:13;17.33;;;6.05;;
52718;SDS011;38616;42.140;24.760;2022-10-16T03:31:38;13.75;;;5.90;;
52718;SDS011;38616;42.140;24.760;2022-10-16T03:34:04;11.48;;;5.85;;
52718;SDS011;38616;42.140;24.760;2022-10-16T03:36:29;16.90;;;6.80;;
52718;SDS011;38616;42.140;24.760;2022-10-16T03:38:54;13.45;;;6.07;;
52718;SDS011;38616;42.140;24.760;2022-10-16T03:41:20;14.90;;;6.55;;
52718;SDS011;38616;42.140;24.760;2022-10-16T03:43:45;11.48;;;5.88;;
52718;SDS011;38616;42.140;24.760;2022-10-16T03:46:11;13.70;;;6.15;;
52718;SDS011;38616;42.140;24.760;2022-10-16T03:48:36;16.17;;;7.43;;
52718;SDS011;38616;42.140;24.760;2022-10-16T03:51:02;13.63;;;6.78;;
52718;SDS011;38616;42.140;24.760;2022-10-16T03:53:27;11.27;;;6.93;;
52718;SDS011;38616;42.140;24.760;2022-10-16T03:55:52;14.88;;;7.20;;
52718;SDS011;38616;42.140;24.760;2022-10-16T03:58:18;14.77;;;9.35;;
52718;SDS011;38616;42.140;24.760;2022-10-16T04:00:45;18.00;;;9.15;;
52718;SDS011;38616;42.140;24.760;2022-10-16T04:03:12;16.00;;;8.13;;
52718;SDS011;38616;42.140;24.760;2022-10-16T04:05:37;16.17;;;9.45;;
52718;SDS011;38616;42.140;24.760;2022-10-16T04:08:02;21.67;;;8.88;;
52718;SDS011;38616;42.140;24.760;2022-10-16T04:10:28;19.95;;;9.15;;
52718;SDS011;38616;42.140;24.760;2022-10-16T04:12:54;20.75;;;9.02;;
52718;SDS011;38616;42.140;24.760;2022-10-16T04:15:21;19.35;;;8.73;;
52718;SDS011;38616;42.140;24.760;2022-10-16T04:17:47;16.63;;;7.93;;
52718;SDS011;38616;42.140;24.760;2022-10-16T04:20:13;18.40;;;8.20;;
52718;SDS011;38616;42.140;24.760;2022-10-16T04:22:38;18.27;;;9.32;;
52718;SDS011;38616;42.140;24.760;2022-10-16T04:25:04;14.18;;;8.23;;
52718;SDS011;38616;42.140;24.760;2022-10-16T04:27:30;20.67;;;9.38;;
52718;SDS011;38616;42.140;24.760;2022-10-16T04:29:56;14.15;;;8.77;;
52718;SDS011;38616;42.140;24.760;2022-10-16T04:32:22;15.23;;;7.70;;
52718;SDS011;38616;42.140;24.760;2022-10-16T04:34:48;12.70;;;6.60;;
52718;SDS011;38616;42.140;24.760;2022-10-16T04:37:13;14.63;;;5.90;;
52718;SDS011;38616;42.140;24.760;2022-10-16T04:39:39;15.55;;;6.85;;
52718;SDS011;38616;42.140;24.760;2022-10-16T04:42:04;14.32;;;7.18;;
52718;SDS011;38616;42.140;24.760;2022-10-16T04:44:29;13.07;;;7.18;;
52718;SDS011;38616;42.140;24.760;2022-10-16T04:46:55;12.95;;;6.68;;
52718;SDS011;38616;42.140;24.760;2022-10-16T04:49:20;13.45;;;6.65;;
52718;SDS011;38616;42.140;24.760;2022-10-16T04:51:46;10.65;;;5.82;;
52718;SDS011;38616;42.140;24.760;2022-10-16T04:54:11;15.80;;;6.03;;
52718;SDS011;38616;42.140;24.760;2022-10-16T04:56:36;12.77;;;6.07;;
52718;SDS011;38616;42.140;24.760;2022-10-16T04:59:08;15.55;;;5.55;;
52718;SDS011;38616;42.140;24.760;2022-10-16T05:01:34;16.50;;;6.13;;
52718;SDS011;38616;42.140;24.760;2022-10-16T05:04:00;15.82;;;6.68;;
52718;SDS011;38616;42.140;24.760;2022-10-16T05:06:26;18.73;;;8.48;;
52718;SDS011;38616;42.140;24.760;2022-10-16T05:08:51;12.98;;;7.55;;
52718;SDS011;38616;42.140;24.760;2022-10-16T05:11:17;20.48;;;7.53;;
52718;SDS011;38616;42.140;24.760;2022-10-16T05:13:42;17.50;;;7.22;;
52718;SDS011;38616;42.140;24.760;2022-10-16T05:16:08;13.68;;;7.05;;
52718;SDS011;38616;42.140;24.760;2022-10-16T05:18:33;13.73;;;7.05;;
52718;SDS011;38616;42.140;24.760;2022-10-16T05:20:59;16.15;;;6.85;;
52718;SDS011;38616;42.140;24.760;2022-10-16T05:23:24;12.13;;;6.53;;
52718;SDS011;38616;42.140;24.760;2022-10-16T05:25:53;16.92;;;6.88;;
52718;SDS011;38616;42.140;24.760;2022-10-16T05:28:20;14.18;;;6.40;;
52718;SDS011;38616;42.140;24.760;2022-10-16T05:30:45;15.20;;;7.07;;
52718;SDS011;38616;42.140;24.760;2022-10-16T05:33:11;12.52;;;6.47;;
52718;SDS011;38616;42.140;24.760;2022-10-16T05:35:36;12.07;;;6.80;;
52718;SDS011;38616;42.140;24.760;2022-10-16T05:38:02;13.73;;;6.30;;
52718;SDS011;38616;42.140;24.760;2022-10-16T05:40:27;11.13;;;6.35;;
52718;SDS011;38616;42.140;24.760;2022-10-16T05:42:56;13.30;;;7.25;;
52718;SDS011;38616;42.140;24.760;2022-10-16T05:45:21;11.73;;;6.72;;
52718;SDS011;38616;42.140;24.760;2022-10-16T05:47:47;17.13;;;7.90;;
52718;SDS011;38616;42.140;24.760;2022-10-16T05:50:12;17.38;;;8.05;;
52718;SDS011;38616;42.140;24.760;2022-10-16T05:52:37;16.38;;;7.38;;
52718;SDS011;38616;42.140;24.760;2022-10-16T05:55:03;16.08;;;7.25;;
52718;SDS011;38616;42.140;24.760;2022-10-16T05:57:29;14.60;;;6.43;;
52718;SDS011;38616;42.140;24.760;2022-10-16T05:59:54;13.75;;;6.50;;
52718;SDS011;38616;42.140;24.760;2022-10-16T06:02:20;14.90;;;6.90;;
52718;SDS011;38616;42.140;24.760;2022-10-16T06:04:46;15.55;;;7.15;;
52718;SDS011;38616;42.140;24.760;2022-10-16T06:07:11;16.02;;;7.05;;
52718;SDS011;38616;42.140;24.760;2022-10-16T06:09:37;11.93;;;7.32;;
52718;SDS011;38616;42.140;24.760;2022-10-16T06:12:02;12.73;;;7.15;;
52718;SDS011;38616;42.140;24.760;2022-10-16T06:14:28;10.75;;;5.82;;
52718;SDS011;38616;42.140;24.760;2022-10-16T06:16:53;14.88;;;6.13;;
52718;SDS011;38616;42.140;24.760;2022-10-16T06:19:18;10.82;;;5.18;;
52718;SDS011;38616;42.140;24.760;2022-10-16T06:21:44;9.15;;;5.15;;
52718;SDS011;38616;42.140;24.760;2022-10-16T06:24:10;9.50;;;4.32;;
52718;SDS011;38616;42.140;24.760;2022-10-16T06:26:35;9.85;;;4.68;;
52718;SDS011;38616;42.140;24.760;2022-10-16T06:29:01;13.73;;;5.03;;
52718;SDS011;38616;42.140;24.760;2022-10-16T06:31:27;7.35;;;4.15;;
52718;SDS011;38616;42.140;24.760;2022-10-16T06:33:56;13.15;;;4.40;;
52718;SDS011;38616;42.140;24.760;2022-10-16T06:36:22;9.57;;;5.13;;
52718;SDS011;38616;42.140;24.760;2022-10-16T06:38:49;19.90;;;8.40;;
52718;SDS011;38616;42.140;24.760;2022-10-16T06:41:16;11.65;;;4.93;;
52718;SDS011;38616;42.140;24.760;2022-10-16T06:43:43;10.80;;;6.20;;
52718;SDS011;38616;42.140;24.760;2022-10-16T06:46:11;14.13;;;5.40;;
52718;SDS011;38616;42.140;24.760;2022-10-16T06:48:38;13.33;;;5.60;;
52718;SDS011;38616;42.140;24.760;2022-10-16T06:51:05;14.45;;;6.18;;
52718;SDS011;38616;42.140;24.760;2022-10-16T06:53:39;15.95;;;5.95;;
52718;SDS011;38616;42.140;24.760;2022-10-16T06:58:35;13.98;;;5.78;;
52718;SDS011;38616;42.140;24.760;2022-10-16T07:01:00;14.18;;;6.15;;
52718;SDS011;38616;42.140;24.760;2022-10-16T07:03:26;16.73;;;6.95;;
52718;SDS011;38616;42.140;24.760;2022-10-16T07:05:51;11.65;;;6.22;;
52718;SDS011;38616;42.140;24.760;2022-10-16T07:08:16;12.88;;;6.72;;
52718;SDS011;38616;42.140;24.760;2022-10-16T07:10:42;12.73;;;6.88;;
52718;SDS011;38616;42.140;24.760;2022-10-16T07:13:07;9.68;;;5.82;;
52718;SDS011;38616;42.140;24.760;2022-10-16T07:15:33;14.15;;;6.30;;
52718;SDS011;38616;42.140;24.760;2022-10-16T07:17:58;13.55;;;6.53;;
52718;SDS011;38616;42.140;24.760;2022-10-16T07:20:24;15.73;;;7.00;;
52718;SDS011;38616;42.140;24.760;2022-10-16T07:22:49;12.10;;;6.35;;
52718;SDS011;38616;42.140;24.760;2022-10-16T07:25:15;9.73;;;5.20;;
52718;SDS011;38616;42.140;24.760;2022-10-16T07:27:41;10.38;;;6.03;;
52718;SDS011;38616;42.140;24.760;2022-10-16T07:30:06;10.98;;;5.78;;
52718;SDS011;38616;42.140;24.760;2022-10-16T07:32:32;10.57;;;4.75;;
52718;SDS011;38616;42.140;24.760;2022-10-16T07:34:57;12.20;;;6.53;;
52718;SDS011;38616;42.140;24.760;2022-10-16T07:37:23;18.23;;;6.85;;
52718;SDS011;38616;42.140;24.760;2022-10-16T07:39:49;15.77;;;9.75;;
52718;SDS011;38616;42.140;24.760;2022-10-16T07:42:14;9.80;;;5.55;;
52718;SDS011;38616;42.140;24.760;2022-10-16T07:44:39;10.10;;;5.30;;
52718;SDS011;38616;42.140;24.760;2022-10-16T07:47:06;9.68;;;5.38;;
52718;SDS011;38616;42.140;24.760;2022-10-16T07:49:31;11.07;;;5.60;;
52718;SDS011;38616;42.140;24.760;2022-10-16T07:51:57;8.38;;;5.03;;
52718;SDS011;38616;42.140;24.760;2022-10-16T07:54:22;12.85;;;6.32;;
52718;SDS011;38616;42.140;24.760;2022-10-16T07:56:47;17.23;;;5.85;;
52718;SDS011;38616;42.140;24.760;2022-10-16T07:59:13;11.52;;;4.72;;
52718;SDS011;38616;42.140;24.760;2022-10-16T08:01:38;8.57;;;5.47;;
52718;SDS011;38616;42.140;24.760;2022-10-16T08:04:04;14.85;;;5.53;;
52718;SDS011;38616;42.140;24.760;2022-10-16T08:06:34;9.82;;;5.03;;
52718;SDS011;38616;42.140;24.760;2022-10-16T08:09:00;11.10;;;5.38;;
52718;SDS011;38616;42.140;24.760;2022-10-16T08:11:26;12.45;;;6.65;;
52718;SDS011;38616;42.140;24.760;2022-10-16T08:13:51;12.50;;;6.50;;
52718;SDS011;38616;42.140;24.760;2022-10-16T08:16:17;14.32;;;5.13;;
52718;SDS011;38616;42.140;24.760;2022-10-16T08:18:42;9.80;;;5.57;;
52718;SDS011;38616;42.140;24.760;2022-10-16T08:21:12;15.45;;;6.35;;
52718;SDS011;38616;42.140;24.760;2022-10-16T08:23:42;8.80;;;5.10;;
52718;SDS011;38616;42.140;24.760;2022-10-16T08:26:09;10.37;;;5.43;;
52718;SDS011;38616;42.140;24.760;2022-10-16T08:28:35;10.18;;;5.38;;
52718;SDS011;38616;42.140;24.760;2022-10-16T08:31:14;8.98;;;5.60;;
52718;SDS011;38616;42.140;24.760;2022-10-16T08:33:41;10.75;;;5.53;;
52718;SDS011;38616;42.140;24.760;2022-10-16T08:36:09;14.00;;;5.55;;
52718;SDS011;38616;42.140;24.760;2022-10-16T08:38:35;8.75;;;4.70;;
52718;SDS011;38616;42.140;24.760;2022-10-16T08:49:01;9.68;;;4.45;;
52718;SDS011;38616;42.140;24.760;2022-10-16T08:51:29;9.90;;;4.18;;
52718;SDS011;38616;42.140;24.760;2022-10-16T08:53:57;10.57;;;4.47;;
52718;SDS011;38616;42.140;24.760;2022-10-16T08:56:24;11.18;;;5.03;;
52718;SDS011;38616;42.140;24.760;2022-10-16T08:58:51;7.25;;;4.55;;
52718;SDS011;38616;42.140;24.760;2022-10-16T09:01:18;9.65;;;4.55;;
52718;SDS011;38616;42.140;24.760;2022-10-16T09:03:53;9.70;;;5.22;;
52718;SDS011;38616;42.140;24.760;2022-10-16T09:14:22;10.40;;;4.10;;
52718;SDS011;38616;42.140;24.760;2022-10-16T09:17:12;9.30;;;4.32;;
52718;SDS011;38616;42.140;24.760;2022-10-16T09:25:30;13.18;;;5.35;;
52718;SDS011;38616;42.140;24.760;2022-10-16T09:27:57;7.75;;;4.50;;
52718;SDS011;38616;42.140;24.760;2022-10-16T09:30:23;9.52;;;4.63;;
52718;SDS011;38616;42.140;24.760;2022-10-16T09:32:53;8.73;;;5.28;;
52718;SDS011;38616;42.140;24.760;2022-10-16T09:35:22;10.77;;;4.78;;
52718;SDS011;38616;42.140;24.760;2022-10-16T09:37:56;9.82;;;4.63;;
52718;SDS011;38616;42.140;24.760;2022-10-16T09:40:31;7.18;;;4.05;;
52718;SDS011;38616;42.140;24.760;2022-10-16T09:45:38;8.82;;;4.10;;
52718;SDS011;38616;42.140;24.760;2022-10-16T09:48:10;8.70;;;3.90;;
52718;SDS011;38616;42.140;24.760;2022-10-16T09:50:37;5.82;;;3.75;;
52718;SDS011;38616;42.140;24.760;2022-10-16T09:53:13;7.07;;;3.83;;
52718;SDS011;38616;42.140;24.760;2022-10-16T09:55:49;6.13;;;3.70;;
52718;SDS011;38616;42.140;24.760;2022-10-16T09:58:15;5.78;;;3.40;;
52718;SDS011;38616;42.140;24.760;2022-10-16T10:00:41;9.45;;;3.90;;
52718;SDS011;38616;42.140;24.760;2022-10-16T10:03:15;7.20;;;3.88;;
52718;SDS011;38616;42.140;24.760;2022-10-16T10:08:59;7.47;;;3.42;;
52718;SDS011;38616;42.140;24.760;2022-10-16T10:14:03;6.35;;;3.33;;
52718;SDS011;38616;42.140;24.760;2022-10-16T10:16:47;6.97;;;3.35;;
52718;SDS011;38616;42.140;24.760;2022-10-16T10:19:15;6.75;;;3.90;;
52718;SDS011;38616;42.140;24.760;2022-10-16T10:21:41;7.68;;;3.05;;
52718;SDS011;38616;42.140;24.760;2022-10-16T10:24:16;4.65;;;3.35;;
52718;SDS011;38616;42.140;24.760;2022-10-16T10:26:48;5.07;;;3.47;;
52718;SDS011;38616;42.140;24.760;2022-10-16T10:29:31;7.00;;;3.20;;
52718;SDS011;38616;42.140;24.760;2022-10-16T10:32:33;6.20;;;3.85;;
52718;SDS011;38616;42.140;24.760;2022-10-16T10:37:51;6.57;;;3.55;;
52718;SDS011;38616;42.140;24.760;2022-10-16T10:52:05;5.15;;;2.58;;
52718;SDS011;38616;42.140;24.760;2022-10-16T10:55:01;7.13;;;2.88;;
52718;SDS011;38616;42.140;24.760;2022-10-16T11:00:55;5.15;;;3.17;;
52718;SDS011;38616;42.140;24.760;2022-10-16T11:05:44;8.52;;;4.10;;
52718;SDS011;38616;42.140;24.760;2022-10-16T11:11:18;5.82;;;3.03;;
52718;SDS011;38616;42.140;24.760;2022-10-16T11:13:58;4.75;;;3.00;;
52718;SDS011;38616;42.140;24.760;2022-10-16T11:16:30;8.10;;;3.15;;
52718;SDS011;38616;42.140;24.760;2022-10-16T11:19:10;8.18;;;3.83;;
52718;SDS011;38616;42.140;24.760;2022-10-16T11:21:49;7.75;;;3.17;;
52718;SDS011;38616;42.140;24.760;2022-10-16T11:24:22;5.25;;;3.13;;
52718;SDS011;38616;42.140;24.760;2022-10-16T11:26:56;5.03;;;3.38;;
52718;SDS011;38616;42.140;24.760;2022-10-16T11:29:29;11.23;;;4.03;;
52718;SDS011;38616;42.140;24.760;2022-10-16T11:31:58;17.40;;;7.57;;
52718;SDS011;38616;42.140;24.760;2022-10-16T11:34:32;10.10;;;5.03;;
52718;SDS011;38616;42.140;24.760;2022-10-16T11:42:48;5.28;;;3.40;;
52718;SDS011;38616;42.140;24.760;2022-10-16T11:45:30;8.13;;;4.13;;
52718;SDS011;38616;42.140;24.760;2022-10-16T11:50:58;5.07;;;2.72;;
52718;SDS011;38616;42.140;24.760;2022-10-16T11:56:16;5.25;;;2.95;;
52718;SDS011;38616;42.140;24.760;2022-10-16T12:04:20;5.97;;;3.17;;
52718;SDS011;38616;42.140;24.760;2022-10-16T12:07:03;5.82;;;2.78;;
52718;SDS011;38616;42.140;24.760;2022-10-16T12:09:34;7.00;;;2.95;;
52718;SDS011;38616;42.140;24.760;2022-10-16T12:12:03;5.07;;;2.83;;
52718;SDS011;38616;42.140;24.760;2022-10-16T12:19:25;6.30;;;3.08;;
52718;SDS011;38616;42.140;24.760;2022-10-16T12:21:57;4.78;;;3.50;;
52718;SDS011;38616;42.140;24.760;2022-10-16T12:24:37;8.57;;;3.20;;
52718;SDS011;38616;42.140;24.760;2022-10-16T12:27:17;7.28;;;3.08;;
52718;SDS011;38616;42.140;24.760;2022-10-16T12:29:57;6.28;;;3.45;;
52718;SDS011;38616;42.140;24.760;2022-10-16T12:34:53;8.02;;;2.97;;
52718;SDS011;38616;42.140;24.760;2022-10-16T12:39:57;6.63;;;3.25;;
52718;SDS011;38616;42.140;24.760;2022-10-16T12:44:52;6.45;;;3.10;;
52718;SDS011;38616;42.140;24.760;2022-10-16T12:47:48;10.80;;;3.90;;
52718;SDS011;38616;42.140;24.760;2022-10-16T12:53:02;8.65;;;3.53;;
52718;SDS011;38616;42.140;24.760;2022-10-16T12:55:42;5.22;;;3.80;;
52718;SDS011;38616;42.140;24.760;2022-10-16T12:58:41;8.63;;;3.20;;
52718;SDS011;38616;42.140;24.760;2022-10-16T13:07:56;14.73;;;7.55;;
52718;SDS011;38616;42.140;24.760;2022-10-16T13:11:14;9.20;;;4.03;;
52718;SDS011;38616;42.140;24.760;2022-10-16T13:29:28;7.50;;;4.35;;
52718;SDS011;38616;42.140;24.760;2022-10-16T13:31:55;8.57;;;4.57;;
52718;SDS011;38616;42.140;24.760;2022-10-16T13:34:21;6.22;;;3.70;;
52718;SDS011;38616;42.140;24.760;2022-10-16T13:36:48;9.18;;;3.58;;
52718;SDS011;38616;42.140;24.760;2022-10-16T13:39:19;4.80;;;3.47;;
52718;SDS011;38616;42.140;24.760;2022-10-16T13:44:30;8.93;;;3.60;;
52718;SDS011;38616;42.140;24.760;2022-10-16T13:47:02;8.13;;;4.25;;
52718;SDS011;38616;42.140;24.760;2022-10-16T13:49:28;8.98;;;5.03;;
52718;SDS011;38616;42.140;24.760;2022-10-16T13:51:57;7.35;;;4.38;;
52718;SDS011;38616;42.140;24.760;2022-10-16T13:54:24;7.07;;;4.03;;
52718;SDS011;38616;42.140;24.760;2022-10-16T13:56:51;7.70;;;3.85;;
52718;SDS011;38616;42.140;24.760;2022-10-16T13:59:36;7.97;;;4.10;;
52718;SDS011;38616;42.140;24.760;2022-10-16T14:04:52;8.73;;;4.15;;
52718;SDS011;38616;42.140;24.760;2022-10-16T14:07:26;7.63;;;3.60;;
52718;SDS011;38616;42.140;24.760;2022-10-16T14:09:53;9.57;;;3.42;;
52718;SDS011;38616;42.140;24.760;2022-10-16T14:12:20;12.13;;;5.60;;
52718;SDS011;38616;42.140;24.760;2022-10-16T14:14:48;9.27;;;3.55;;
52718;SDS011;38616;42.140;24.760;2022-10-16T14:19:48;6.78;;;3.97;;
52718;SDS011;38616;42.140;24.760;2022-10-16T14:25:01;10.18;;;5.32;;
52718;SDS011;38616;42.140;24.760;2022-10-16T14:27:34;11.60;;;5.93;;
52718;SDS011;38616;42.140;24.760;2022-10-16T14:33:00;8.80;;;4.15;;
52718;SDS011;38616;42.140;24.760;2022-10-16T14:35:37;9.48;;;4.53;;
52718;SDS011;38616;42.140;24.760;2022-10-16T14:38:05;8.68;;;3.97;;
52718;SDS011;38616;42.140;24.760;2022-10-16T14:40:45;11.88;;;3.70;;
52718;SDS011;38616;42.140;24.760;2022-10-16T14:43:24;7.95;;;4.10;;
52718;SDS011;38616;42.140;24.760;2022-10-16T14:45:56;5.85;;;3.10;;
52718;SDS011;38616;42.140;24.760;2022-10-16T14:48:22;9.43;;;3.72;;
52718;SDS011;38616;42.140;24.760;2022-10-16T14:50:48;6.97;;;3.28;;
52718;SDS011;38616;42.140;24.760;2022-10-16T14:53:14;8.35;;;3.78;;
52718;SDS011;38616;42.140;24.760;2022-10-16T14:55:40;12.68;;;5.97;;
52718;SDS011;38616;42.140;24.760;2022-10-16T14:58:13;7.15;;;3.83;;
52718;SDS011;38616;42.140;24.760;2022-10-16T15:00:40;9.60;;;3.70;;
52718;SDS011;38616;42.140;24.760;2022-10-16T15:03:05;12.10;;;4.35;;
52718;SDS011;38616;42.140;24.760;2022-10-16T15:05:31;7.30;;;3.88;;
52718;SDS011;38616;42.140;24.760;2022-10-16T15:07:57;12.98;;;5.60;;
52718;SDS011;38616;42.140;24.760;2022-10-16T15:10:23;12.45;;;5.65;;
52718;SDS011;38616;42.140;24.760;2022-10-16T15:15:31;12.57;;;5.82;;
52718;SDS011;38616;42.140;24.760;2022-10-16T15:17:59;14.05;;;6.55;;
52718;SDS011;38616;42.140;24.760;2022-10-16T15:20:33;18.65;;;9.43;;
52718;SDS011;38616;42.140;24.760;2022-10-16T15:23:04;13.73;;;7.50;;
52718;SDS011;38616;42.140;24.760;2022-10-16T15:25:45;18.05;;;9.45;;
52718;SDS011;38616;42.140;24.760;2022-10-16T15:28:12;15.73;;;8.95;;
52718;SDS011;38616;42.140;24.760;2022-10-16T15:30:39;29.38;;;12.13;;
52718;SDS011;38616;42.140;24.760;2022-10-16T15:33:10;15.88;;;8.70;;
52718;SDS011;38616;42.140;24.760;2022-10-16T15:35:38;20.00;;;10.18;;
52718;SDS011;38616;42.140;24.760;2022-10-16T15:38:03;19.05;;;9.85;;
52718;SDS011;38616;42.140;24.760;2022-10-16T15:40:29;16.38;;;8.50;;
52718;SDS011;38616;42.140;24.760;2022-10-16T15:42:54;12.10;;;5.63;;
52718;SDS011;38616;42.140;24.760;2022-10-16T15:45:20;17.45;;;9.23;;
52718;SDS011;38616;42.140;24.760;2022-10-16T15:47:46;20.48;;;8.18;;
52718;SDS011;38616;42.140;24.760;2022-10-16T15:50:12;15.75;;;7.97;;
52718;SDS011;38616;42.140;24.760;2022-10-16T15:52:39;10.63;;;4.90;;
52718;SDS011;38616;42.140;24.760;2022-10-16T15:55:06;8.90;;;3.63;;
52718;SDS011;38616;42.140;24.760;2022-10-16T15:59:58;13.15;;;5.05;;
52718;SDS011;38616;42.140;24.760;2022-10-16T16:02:24;13.13;;;7.35;;
52718;SDS011;38616;42.140;24.760;2022-10-16T16:04:49;19.48;;;8.23;;
52718;SDS011;38616;42.140;24.760;2022-10-16T16:07:15;15.00;;;7.47;;
52718;SDS011;38616;42.140;24.760;2022-10-16T16:09:40;14.95;;;5.70;;
52718;SDS011;38616;42.140;24.760;2022-10-16T16:12:06;16.67;;;6.80;;
52718;SDS011;38616;42.140;24.760;2022-10-16T16:14:31;12.25;;;6.25;;
52718;SDS011;38616;42.140;24.760;2022-10-16T16:16:57;17.40;;;9.27;;
52718;SDS011;38616;42.140;24.760;2022-10-16T16:19:22;13.20;;;6.60;;
52718;SDS011;38616;42.140;24.760;2022-10-16T16:21:48;15.13;;;6.32;;
52718;SDS011;38616;42.140;24.760;2022-10-16T16:24:14;14.20;;;6.22;;
52718;SDS011;38616;42.140;24.760;2022-10-16T16:26:40;18.13;;;7.70;;
52718;SDS011;38616;42.140;24.760;2022-10-16T16:29:09;19.35;;;7.90;;
52718;SDS011;38616;42.140;24.760;2022-10-16T16:31:38;15.60;;;6.40;;
52718;SDS011;38616;42.140;24.760;2022-10-16T16:34:04;13.60;;;6.45;;
52718;SDS011;38616;42.140;24.760;2022-10-16T16:36:30;20.52;;;9.25;;
52718;SDS011;38616;42.140;24.760;2022-10-16T16:38:56;16.42;;;7.35;;
52718;SDS011;38616;42.140;24.760;2022-10-16T16:41:23;15.85;;;7.20;;
52718;SDS011;38616;42.140;24.760;2022-10-16T16:43:51;21.13;;;9.18;;
52718;SDS011;38616;42.140;24.760;2022-10-16T16:46:17;24.10;;;10.88;;
52718;SDS011;38616;42.140;24.760;2022-10-16T16:48:43;20.27;;;9.02;;
52718;SDS011;38616;42.140;24.760;2022-10-16T16:51:13;20.08;;;8.90;;
52718;SDS011;38616;42.140;24.760;2022-10-16T16:53:43;22.48;;;8.48;;
52718;SDS011;38616;42.140;24.760;2022-10-16T16:56:09;14.77;;;6.68;;
52718;SDS011;38616;42.140;24.760;2022-10-16T16:58:35;15.68;;;6.82;;
52718;SDS011;38616;42.140;24.760;2022-10-16T17:01:01;19.95;;;8.05;;
52718;SDS011;38616;42.140;24.760;2022-10-16T17:03:28;20.52;;;7.78;;
52718;SDS011;38616;42.140;24.760;2022-10-16T17:06:02;12.63;;;6.72;;
52718;SDS011;38616;42.140;24.760;2022-10-16T17:08:31;15.73;;;6.13;;